Time;durP1;ratioP1;P1;durP2;ratioP2;P2;SDS_P1;SDS_P2;PMS_P1;PMS_P2;Temp;Humidity;BMP_temperature;BMP_pressure;BME280_temperature;BME280_humidity;BME280_pressure;Samples;Min_cycle;Max_cycle;Signal;HPM_P1;HPM_P2
2022/06/22 00:00:34;;;;;;;3.93;2.50;;;18.10;75.40;;;;;;5036573;28;20794;-72
2022/06/22 00:03:21;;;;;;;5.10;2.70;;;17.90;77.30;;;;;;5027122;28;20829;-71
2022/06/22 00:06:07;;;;;;;3.70;2.30;;;18.00;77.50;;;;;;5025123;28;20510;-71
2022/06/22 00:08:53;;;;;;;3.47;2.80;;;17.90;77.60;;;;;;5038937;28;20420;-71
2022/06/22 00:11:44;;;;;;;4.40;2.77;;;17.90;78.10;;;;;;5029712;28;20472;-71
2022/06/22 00:14:37;;;;;;;5.53;2.67;;;17.90;78.20;;;;;;5026820;28;20423;-71
2022/06/22 00:17:27;;;;;;;4.63;2.67;;;17.80;78.80;;;;;;5034020;28;20452;-71
2022/06/22 00:20:16;;;;;;;3.67;2.23;;;17.80;79.70;;;;;;5031196;28;20508;-71
2022/06/22 00:23:24;;;;;;;10.33;2.73;;;17.90;78.50;;;;;;5025747;28;20479;-72
2022/06/22 00:26:20;;;;;;;6.03;2.60;;;17.80;78.70;;;;;;5030068;28;20784;-71
2022/06/22 00:29:22;;;;;;;5.33;2.70;;;17.90;78.90;;;;;;5039238;28;20490;-71
2022/06/22 00:32:17;;;;;;;3.23;2.30;;;18.10;79.10;;;;;;5032946;28;20490;-72
2022/06/22 00:35:42;;;;;;;7.97;2.40;;;18.10;77.70;;;;;;5034458;28;20836;-71
2022/06/22 00:38:31;;;;;;;6.23;2.70;;;17.90;78.20;;;;;;5029495;28;20432;-71
2022/06/22 00:41:19;;;;;;;6.90;2.67;;;17.70;79.50;;;;;;5022213;28;20443;-71
2022/06/22 00:44:08;;;;;;;5.47;2.53;;;17.70;80.50;;;;;;5020600;28;20995;-72
2022/06/22 00:47:00;;;;;;;6.50;2.37;;;17.70;81.60;;;;;;5028867;28;20923;-71
2022/06/22 00:49:46;;;;;;;5.70;2.60;;;17.80;81.10;;;;;;5024098;28;20588;-75
2022/06/22 00:52:39;;;;;;;4.00;2.60;;;17.70;81.30;;;;;;5036233;28;20814;-71
2022/06/22 00:55:31;;;;;;;3.17;2.30;;;17.60;81.50;;;;;;5029389;28;20539;-71
2022/06/22 00:58:24;;;;;;;5.20;2.70;;;17.70;82.00;;;;;;5025348;28;20464;-71
2022/06/22 01:01:18;;;;;;;4.50;2.90;;;17.70;81.80;;;;;;5026379;28;20450;-71
2022/06/22 01:04:08;;;;;;;5.90;3.10;;;17.80;81.20;;;;;;5040239;28;20487;-72
2022/06/22 01:07:00;;;;;;;5.07;2.57;;;17.90;81.00;;;;;;5025063;28;20468;-73
2022/06/22 01:09:55;;;;;;;4.20;2.70;;;17.80;79.40;;;;;;5034638;28;20461;-74
2022/06/22 01:12:50;;;;;;;3.70;3.07;;;17.70;80.30;;;;;;5030183;28;20442;-72
2022/06/22 01:15:41;;;;;;;5.60;2.70;;;17.50;81.10;;;;;;5030018;28;20426;-71
2022/06/22 01:18:31;;;;;;;7.07;2.90;;;17.50;81.90;;;;;;5026707;28;20465;-72
2022/06/22 01:21:22;;;;;;;8.70;2.80;;;17.40;82.10;;;;;;5037999;28;20964;-72
2022/06/22 01:24:23;;;;;;;3.30;2.83;;;17.30;82.40;;;;;;5033664;28;20852;-72
2022/06/22 01:27:24;;;;;;;3.60;2.20;;;17.30;83.00;;;;;;5031793;28;20427;-72
2022/06/22 01:30:21;;;;;;;4.50;2.63;;;17.40;83.80;;;;;;5034229;28;20491;-72
2022/06/22 01:33:09;;;;;;;3.50;2.53;;;17.50;83.00;;;;;;5039305;28;21069;-73
2022/06/22 01:35:58;;;;;;;3.57;2.60;;;17.50;81.90;;;;;;5034641;28;20529;-72
2022/06/22 01:38:44;;;;;;;3.73;2.37;;;17.60;81.90;;;;;;5040346;28;20705;-71
2022/06/22 01:41:38;;;;;;;4.43;2.90;;;17.40;82.40;;;;;;5036840;28;20947;-71
2022/06/22 01:44:29;;;;;;;2.70;2.20;;;17.50;82.90;;;;;;5044990;28;20420;-71
2022/06/22 01:47:24;;;;;;;5.40;2.90;;;17.50;83.00;;;;;;5041699;28;20430;-71
2022/06/22 01:50:18;;;;;;;3.70;2.73;;;17.50;82.90;;;;;;5026418;28;20452;-71
2022/06/22 01:53:12;;;;;;;8.37;3.00;;;17.50;83.80;;;;;;5030334;28;20449;-72
2022/06/22 01:56:03;;;;;;;6.60;3.37;;;17.50;83.70;;;;;;5028242;28;20395;-72
2022/06/22 01:59:03;;;;;;;7.33;3.13;;;17.50;84.10;;;;;;5036449;28;20845;-72
2022/06/22 02:01:56;;;;;;;3.80;2.67;;;17.50;83.60;;;;;;5039040;28;20521;-72
2022/06/22 02:04:47;;;;;;;5.30;3.10;;;17.50;83.60;;;;;;5047723;28;20415;-74
2022/06/22 02:07:45;;;;;;;5.07;2.50;;;17.50;84.00;;;;;;5040774;28;20444;-72
2022/06/22 02:10:40;;;;;;;4.53;2.70;;;17.40;84.50;;;;;;5039986;28;20447;-72
2022/06/22 02:13:32;;;;;;;4.13;2.83;;;17.50;85.10;;;;;;5046682;28;20435;-71
2022/06/22 02:16:26;;;;;;;5.10;2.53;;;17.40;84.60;;;;;;5040890;28;20779;-71
2022/06/22 02:19:15;;;;;;;5.00;2.53;;;17.40;84.80;;;;;;5028898;28;20450;-72
2022/06/22 02:22:01;;;;;;;3.67;3.13;;;17.40;84.60;;;;;;5037842;28;20447;-72
2022/06/22 02:24:48;;;;;;;7.70;2.93;;;17.50;84.80;;;;;;5031400;28;20841;-72
2022/06/22 02:27:34;;;;;;;3.80;2.70;;;17.50;85.00;;;;;;5031684;28;20425;-72
2022/06/22 02:30:20;;;;;;;3.60;2.50;;;17.50;84.40;;;;;;5042919;28;20432;-71
2022/06/22 02:33:08;;;;;;;3.00;2.23;;;17.50;84.30;;;;;;5030740;28;20817;-72
2022/06/22 02:35:59;;;;;;;3.10;2.53;;;17.50;84.60;;;;;;5032701;28;20933;-73
2022/06/22 02:38:47;;;;;;;4.50;2.87;;;17.60;84.70;;;;;;5039658;28;20504;-71
2022/06/22 02:44:46;;;;;;;5.53;2.77;;;17.70;83.20;;;;;;5030099;28;20819;-71
2022/06/22 02:47:43;;;;;;;4.23;2.67;;;17.50;83.60;;;;;;5039357;28;20427;-74
2022/06/22 02:50:36;;;;;;;3.90;2.87;;;17.30;83.90;;;;;;5036362;28;20464;-73
2022/06/22 02:53:28;;;;;;;8.07;2.87;;;17.10;85.50;;;;;;5042912;28;20431;-72
2022/06/22 02:56:16;;;;;;;5.20;2.90;;;17.00;85.40;;;;;;5032311;28;20443;-72
2022/06/22 02:59:03;;;;;;;5.37;2.90;;;17.00;86.30;;;;;;5025750;28;20482;-71
2022/06/22 03:01:50;;;;;;;5.20;2.90;;;16.90;87.30;;;;;;5042751;28;20464;-72
2022/06/22 03:04:35;;;;;;;4.20;2.70;;;16.90;88.10;;;;;;5045622;28;20949;-74
2022/06/22 03:07:22;;;;;;;4.17;2.70;;;16.90;87.70;;;;;;5029632;28;20428;-72
2022/06/22 03:10:23;;;;;;;4.50;3.00;;;17.10;87.70;;;;;;5035354;28;20514;-71
2022/06/22 03:13:10;;;;;;;8.17;2.87;;;17.20;87.30;;;;;;4997960;28;1163664;-72
2022/06/22 03:15:57;;;;;;;4.83;3.17;;;17.20;86.70;;;;;;5035906;28;20431;-73
2022/06/22 03:18:44;;;;;;;4.53;3.03;;;17.20;87.00;;;;;;5028762;28;20925;-73
2022/06/22 03:21:31;;;;;;;3.70;2.50;;;17.30;87.30;;;;;;5037172;28;20571;-72
2022/06/22 03:24:24;;;;;;;4.73;3.20;;;17.30;87.50;;;;;;5026615;28;20524;-72
2022/06/22 03:27:17;;;;;;;4.90;2.80;;;17.40;86.70;;;;;;5031831;28;20439;-72
2022/06/22 03:30:06;;;;;;;8.23;3.07;;;17.40;87.80;;;;;;5033651;28;20429;-73
2022/06/22 03:32:57;;;;;;;3.70;2.80;;;17.40;88.00;;;;;;5035414;28;20770;-71
2022/06/22 03:35:47;;;;;;;7.43;3.13;;;17.30;87.00;;;;;;5041205;28;20427;-73
2022/06/22 03:38:38;;;;;;;12.40;3.30;;;17.20;87.00;;;;;;5026254;28;20482;-73
2022/06/22 03:41:28;;;;;;;8.07;3.20;;;17.00;87.90;;;;;;5040862;28;20459;-71
2022/06/22 03:44:21;;;;;;;4.37;2.67;;;17.00;88.80;;;;;;5030415;28;20471;-71
2022/06/22 03:47:11;;;;;;;5.77;3.10;;;16.90;89.20;;;;;;5029997;28;20487;-71
2022/06/22 03:50:01;;;;;;;3.90;3.10;;;16.90;89.20;;;;;;5037732;28;20529;-72
2022/06/22 03:52:51;;;;;;;5.37;2.90;;;16.90;90.10;;;;;;5041580;28;20452;-73
2022/06/22 03:55:41;;;;;;;7.63;3.33;;;16.80;90.10;;;;;;5038465;28;20803;-72
2022/06/22 03:58:27;;;;;;;6.53;3.03;;;16.90;90.20;;;;;;5032643;28;20554;-71
2022/06/22 04:01:15;;;;;;;4.83;2.70;;;16.90;90.70;;;;;;5035605;28;20833;-71
2022/06/22 04:04:02;;;;;;;15.57;3.13;;;16.90;90.80;;;;;;5035257;28;20460;-71
2022/06/22 04:06:49;;;;;;;4.23;2.93;;;17.00;90.80;;;;;;5036716;28;20430;-72
2022/06/22 04:09:35;;;;;;;4.90;2.60;;;17.00;90.10;;;;;;5040170;28;20403;-71
2022/06/22 04:12:25;;;;;;;4.00;2.60;;;17.10;90.20;;;;;;5035046;28;20886;-71
2022/06/22 04:15:24;;;;;;;6.17;3.20;;;17.00;90.80;;;;;;5042315;28;20466;-71
2022/06/22 04:18:19;;;;;;;10.53;3.47;;;17.10;90.80;;;;;;5025031;28;20755;-71
2022/06/22 04:21:08;;;;;;;3.97;2.90;;;17.10;90.60;;;;;;5038260;28;20776;-71
2022/06/22 04:23:57;;;;;;;6.83;3.67;;;17.10;90.90;;;;;;5036225;28;20463;-72
2022/06/22 04:26:47;;;;;;;6.67;3.00;;;17.20;91.10;;;;;;5025535;28;20524;-72
2022/06/22 04:29:39;;;;;;;6.10;2.60;;;17.30;91.40;;;;;;5036132;28;20525;-72
2022/06/22 04:32:29;;;;;;;4.37;3.00;;;17.50;91.80;;;;;;5042408;28;20502;-72
2022/06/22 04:35:28;;;;;;;4.30;2.97;;;17.50;92.30;;;;;;5039361;28;20519;-72
2022/06/22 04:38:21;;;;;;;8.10;3.60;;;17.60;91.60;;;;;;5027026;28;20445;-74
2022/06/22 04:41:20;;;;;;;4.17;3.30;;;17.70;91.70;;;;;;5036033;28;20506;-74
2022/06/22 04:44:11;;;;;;;4.37;3.20;;;17.80;91.50;;;;;;5032479;28;21058;-71
2022/06/22 04:47:05;;;;;;;5.23;3.47;;;18.00;91.30;;;;;;5028661;28;20448;-72
2022/06/22 04:49:53;;;;;;;3.83;2.90;;;18.10;90.80;;;;;;5042944;28;20403;-71
2022/06/22 04:52:45;;;;;;;3.73;2.67;;;18.20;90.50;;;;;;5041147;28;20517;-75
2022/06/22 04:55:33;;;;;;;5.40;2.87;;;18.20;90.90;;;;;;5031160;28;20949;-71
2022/06/22 04:58:34;;;;;;;9.73;3.33;;;18.30;90.20;;;;;;5034622;28;20415;-72
2022/06/22 05:01:25;;;;;;;4.80;3.00;;;18.40;90.40;;;;;;5040840;28;20493;-71
2022/06/22 05:04:18;;;;;;;4.17;2.83;;;18.40;90.00;;;;;;5041302;28;20585;-75
2022/06/22 05:07:08;;;;;;;5.00;3.33;;;18.40;90.30;;;;;;5028731;28;20452;-72
2022/06/22 05:10:01;;;;;;;3.63;2.80;;;18.40;91.40;;;;;;5034383;28;20478;-72
2022/06/22 05:12:51;;;;;;;4.20;2.87;;;18.40;91.50;;;;;;5053552;22;20487;-74
2022/06/22 05:15:38;;;;;;;6.70;3.33;;;18.40;90.70;;;;;;5041940;28;20423;-75
2022/06/22 05:18:27;;;;;;;4.47;3.10;;;18.40;90.70;;;;;;5039311;28;20425;-75
2022/06/22 05:21:20;;;;;;;8.90;3.17;;;18.30;91.20;;;;;;5040018;28;20424;-75
2022/06/22 05:24:10;;;;;;;5.80;3.00;;;18.30;91.50;;;;;;5039721;28;20571;-72
2022/06/22 05:27:00;;;;;;;4.07;2.97;;;18.50;91.60;;;;;;5029095;28;20498;-73
2022/06/22 05:29:49;;;;;;;11.17;3.30;;;18.60;91.70;;;;;;5043552;28;20421;-72
2022/06/22 05:32:40;;;;;;;4.73;2.80;;;18.70;91.10;;;;;;5044247;28;20447;-75
2022/06/22 05:35:31;;;;;;;4.10;3.20;;;18.70;90.80;;;;;;5040398;28;20578;-74
2022/06/22 05:38:19;;;;;;;3.77;2.73;;;18.90;90.00;;;;;;5041631;28;20429;-71
2022/06/22 05:41:07;;;;;;;5.00;2.70;;;19.00;89.50;;;;;;5032255;28;20424;-73
2022/06/22 05:43:57;;;;;;;6.43;2.60;;;19.10;90.00;;;;;;5031373;28;20475;-73
2022/06/22 05:46:49;;;;;;;6.63;2.87;;;19.10;88.70;;;;;;5027300;28;20453;-72
2022/06/22 05:49:42;;;;;;;5.13;3.17;;;19.20;88.70;;;;;;5044314;28;20570;-73
2022/06/22 05:52:35;;;;;;;4.00;2.60;;;19.30;90.20;;;;;;5040840;28;20790;-75
2022/06/22 05:55:25;;;;;;;4.43;2.67;;;19.40;89.90;;;;;;5031927;28;20442;-74
2022/06/22 05:58:17;;;;;;;4.93;2.50;;;19.50;87.50;;;;;;5037784;28;20424;-74
2022/06/22 06:01:10;;;;;;;6.23;3.03;;;19.50;85.30;;;;;;5034214;28;20428;-75
2022/06/22 06:04:02;;;;;;;5.67;2.73;;;19.70;87.10;;;;;;5041476;28;20463;-76
2022/06/22 06:06:49;;;;;;;4.37;2.50;;;19.80;85.60;;;;;;5029994;28;20998;-76
2022/06/22 06:09:35;;;;;;;5.33;2.40;;;19.90;83.00;;;;;;5037593;28;20432;-75
2022/06/22 06:12:26;;;;;;;4.63;2.70;;;20.00;78.40;;;;;;5043233;28;20513;-74
2022/06/22 06:15:15;;;;;;;4.63;2.50;;;20.10;78.60;;;;;;5027714;28;20452;-74
2022/06/22 06:18:03;;;;;;;7.40;2.87;;;20.20;78.30;;;;;;5044106;28;20432;-75
2022/06/22 06:20:54;;;;;;;3.50;2.40;;;20.20;80.10;;;;;;5041613;28;20432;-75
2022/06/22 06:23:45;;;;;;;3.80;2.30;;;20.20;78.70;;;;;;5037289;28;21004;-75
2022/06/22 06:29:48;;;;;;;4.87;3.07;;;20.30;74.30;;;;;;5042729;28;20480;-74
2022/06/22 06:32:40;;;;;;;3.47;2.40;;;20.50;71.40;;;;;;5043766;28;20434;-75
2022/06/22 06:35:32;;;;;;;6.07;3.10;;;20.60;70.30;;;;;;5030491;28;20446;-75
2022/06/22 06:38:25;;;;;;;4.37;2.77;;;20.70;70.40;;;;;;5039003;28;20441;-74
2022/06/22 06:41:14;;;;;;;7.37;2.93;;;20.80;70.30;;;;;;5044035;28;20415;-74
2022/06/22 06:44:03;;;;;;;8.13;2.87;;;20.80;68.50;;;;;;5031599;28;20464;-75
2022/06/22 06:46:51;;;;;;;7.57;2.93;;;20.90;69.30;;;;;;5034803;28;20894;-74
2022/06/22 06:49:40;;;;;;;6.10;2.53;;;21.00;68.20;;;;;;5044669;28;20420;-74
2022/06/22 06:52:34;;;;;;;6.10;2.70;;;21.20;68.00;;;;;;5039495;28;20427;-73
2022/06/22 06:55:33;;;;;;;5.60;2.60;;;21.30;65.20;;;;;;5026927;28;20450;-75
2022/06/22 06:58:26;;;;;;;4.20;2.90;;;21.30;65.10;;;;;;5038191;28;20427;-75
2022/06/22 07:01:17;;;;;;;8.57;2.50;;;21.50;66.10;;;;;;5043778;28;20792;-75
2022/06/22 07:04:07;;;;;;;5.00;2.53;;;21.60;64.90;;;;;;5035161;28;20678;-73
2022/06/22 07:06:56;;;;;;;3.67;2.27;;;21.70;63.60;;;;;;5034881;28;20847;-75
2022/06/22 07:09:44;;;;;;;11.40;2.93;;;21.80;65.40;;;;;;5044723;28;20894;-75
2022/06/22 07:12:35;;;;;;;6.83;2.60;;;21.90;56.00;;;;;;5041268;28;20460;-75
2022/06/22 07:15:23;;;;;;;3.87;2.50;;;21.90;58.00;;;;;;5039427;28;20927;-75
2022/06/22 07:18:19;;;;;;;4.03;2.47;;;22.00;58.60;;;;;;5038527;28;20416;-75
2022/06/22 07:21:16;;;;;;;3.17;1.83;;;22.20;59.90;;;;;;5037499;28;20528;-75
2022/06/22 07:24:08;;;;;;;3.57;2.30;;;22.30;51.20;;;;;;5035333;28;20987;-74
2022/06/22 07:27:00;;;;;;;7.97;2.77;;;22.50;50.50;;;;;;5030556;28;20423;-74
2022/06/22 07:29:51;;;;;;;6.00;2.67;;;22.60;51.50;;;;;;5041215;28;20519;-75
2022/06/22 07:32:41;;;;;;;3.47;2.00;;;22.70;51.20;;;;;;5040872;28;20447;-74
2022/06/22 07:35:35;;;;;;;3.17;1.90;;;22.90;48.20;;;;;;5030463;28;20500;-73
2022/06/22 07:38:27;;;;;;;5.03;2.10;;;23.00;47.70;;;;;;5038498;28;20452;-75
2022/06/22 07:41:20;;;;;;;4.23;2.80;;;23.00;50.50;;;;;;5034412;28;20432;-74
2022/06/22 07:44:13;;;;;;;5.57;2.20;;;23.00;50.10;;;;;;5032604;28;20473;-73
2022/06/22 07:47:05;;;;;;;3.40;2.10;;;23.00;49.10;;;;;;5041651;28;20848;-74
2022/06/22 07:49:57;;;;;;;3.50;1.80;;;23.10;47.30;;;;;;5039844;28;20428;-75
2022/06/22 07:52:47;;;;;;;3.50;2.83;;;23.20;47.10;;;;;;5045536;28;20964;-74
2022/06/22 07:55:41;;;;;;;5.00;2.20;;;23.20;40.00;;;;;;5023795;28;20457;-75
2022/06/22 07:58:31;;;;;;;2.70;1.90;;;23.20;39.20;;;;;;5043098;28;20428;-73
2022/06/22 08:01:25;;;;;;;3.00;1.73;;;23.40;43.20;;;;;;5042378;28;20439;-74
2022/06/22 08:04:17;;;;;;;3.53;2.20;;;23.50;35.50;;;;;;5022017;28;20464;-73
2022/06/22 08:07:07;;;;;;;6.97;2.47;;;23.60;40.10;;;;;;5036287;28;20429;-73
2022/06/22 08:10:03;;;;;;;4.97;2.07;;;23.70;38.90;;;;;;5045373;28;20920;-74
2022/06/22 08:12:55;;;;;;;2.83;1.60;;;23.80;41.10;;;;;;5039840;28;20542;-74
2022/06/22 08:15:44;;;;;;;2.90;2.00;;;23.90;38.20;;;;;;5041636;28;20422;-74
2022/06/22 08:18:32;;;;;;;5.30;2.47;;;24.00;37.60;;;;;;5046521;28;20428;-73
2022/06/22 08:21:20;;;;;;;4.07;2.50;;;24.00;37.90;;;;;;5039543;28;20791;-74
2022/06/22 08:24:09;;;;;;;3.70;2.13;;;24.10;35.90;;;;;;5029522;28;20959;-73
2022/06/22 08:26:57;;;;;;;6.77;2.30;;;24.20;37.50;;;;;;5029844;28;20428;-73
2022/06/22 08:29:43;;;;;;;6.87;2.23;;;24.30;37.00;;;;;;5043259;28;20499;-73
2022/06/22 08:32:33;;;;;;;7.20;2.87;;;24.40;40.10;;;;;;5046575;28;20447;-73
2022/06/22 08:35:24;;;;;;;9.50;2.70;;;24.40;43.30;;;;;;5039668;28;20620;-74
2022/06/22 08:38:17;;;;;;;6.63;2.70;;;24.40;43.60;;;;;;5040072;28;20471;-73
2022/06/22 08:41:16;;;;;;;4.20;2.57;;;24.20;40.60;;;;;;5050126;28;20420;-74
2022/06/22 08:44:10;;;;;;;7.50;2.40;;;24.10;40.50;;;;;;5026882;28;20949;-73
2022/06/22 08:47:35;;;;;;;6.60;2.63;;;24.20;42.20;;;;;;5044360;28;20442;-73
2022/06/22 08:50:50;;;;;;;8.80;3.10;;;24.30;44.20;;;;;;5042483;28;20443;-73
2022/06/22 08:53:55;;;;;;;6.00;2.13;;;24.40;43.30;;;;;;5033060;28;20547;-73
2022/06/22 08:56:49;;;;;;;3.77;2.77;;;24.40;44.30;;;;;;5042307;28;20424;-73
2022/06/22 09:00:06;;;;;;;11.90;3.80;;;24.40;44.30;;;;;;5044778;28;20435;-73
2022/06/22 09:03:23;;;;;;;5.50;2.53;;;24.30;48.20;;;;;;5039441;28;20467;-73
2022/06/22 09:06:41;;;;;;;4.93;2.10;;;24.30;47.00;;;;;;5035159;28;20945;-73
2022/06/22 09:10:12;;;;;;;6.80;2.73;;;24.30;44.20;;;;;;5041250;28;20440;-72
2022/06/22 09:13:17;;;;;;;3.43;2.47;;;24.30;41.20;;;;;;4993036;28;20485;-74
2022/06/22 09:16:17;;;;;;;5.40;2.60;;;24.40;42.70;;;;;;5032261;28;20425;-74
2022/06/22 09:19:36;;;;;;;10.67;2.37;;;24.40;38.90;;;;;;5036463;28;20503;-73
2022/06/22 09:22:40;;;;;;;5.30;2.80;;;24.40;38.90;;;;;;5032337;28;20484;-73
2022/06/22 09:25:30;;;;;;;3.97;2.77;;;24.50;42.30;;;;;;5030321;28;21008;-73
2022/06/22 09:28:23;;;;;;;6.47;3.10;;;24.60;43.20;;;;;;5042075;28;20424;-74
2022/06/22 09:31:29;;;;;;;5.00;3.20;;;24.50;41.80;;;;;;5037901;28;20938;-74
2022/06/22 09:34:29;;;;;;;8.30;2.90;;;24.50;44.40;;;;;;5039059;28;20451;-73
2022/06/22 09:37:34;;;;;;;8.97;2.80;;;24.30;43.10;;;;;;5031814;28;20503;-73
2022/06/22 09:40:32;;;;;;;6.20;3.00;;;24.40;46.70;;;;;;5044136;28;20509;-73
2022/06/22 09:43:43;;;;;;;6.20;3.40;;;24.40;47.00;;;;;;5026919;28;20506;-72
2022/06/22 09:47:05;;;;;;;7.40;3.80;;;24.50;46.60;;;;;;5028046;28;21059;-73
2022/06/22 09:50:15;;;;;;;8.80;3.80;;;24.40;44.30;;;;;;5028361;28;20523;-72
2022/06/22 09:53:40;;;;;;;7.60;3.33;;;24.50;46.70;;;;;;5026274;28;20599;-72
2022/06/22 09:56:50;;;;;;;8.80;3.53;;;24.50;46.30;;;;;;5038831;28;20443;-73
2022/06/22 10:00:01;;;;;;;8.97;3.90;;;24.40;44.30;;;;;;5038718;28;20431;-73
2022/06/22 10:03:17;;;;;;;9.40;3.60;;;24.10;43.90;;;;;;5032300;28;20492;-73
2022/06/22 10:06:24;;;;;;;7.30;3.60;;;24.00;43.90;;;;;;5031314;28;21063;-73
2022/06/22 10:09:26;;;;;;;8.43;3.77;;;23.80;43.80;;;;;;5030585;28;20444;-73
2022/06/22 10:12:25;;;;;;;16.60;4.70;;;23.80;45.30;;;;;;5026622;28;20491;-73
2022/06/22 10:15:33;;;;;;;9.83;4.20;;;23.70;43.50;;;;;;5029384;28;21024;-73
2022/06/22 10:18:39;;;;;;;12.47;3.53;;;23.70;45.00;;;;;;5026604;28;20423;-74
2022/06/22 10:21:37;;;;;;;5.60;3.30;;;23.70;45.60;;;;;;5023179;28;20457;-72
2022/06/22 10:24:42;;;;;;;4.93;3.00;;;23.60;48.40;;;;;;5026322;28;20428;-73
2022/06/22 10:27:51;;;;;;;21.43;3.67;;;23.50;48.90;;;;;;5024673;28;20449;-73
2022/06/22 10:30:48;;;;;;;6.40;3.37;;;23.60;49.10;;;;;;5027147;28;20476;-72
2022/06/22 10:34:06;;;;;;;8.03;3.43;;;23.50;49.50;;;;;;5027175;28;21246;-73
2022/06/22 10:37:27;;;;;;;10.00;3.80;;;23.40;46.90;;;;;;5026995;28;21096;-73
2022/06/22 10:47:32;;;;;;;8.47;3.37;;;23.60;47.80;;;;;;5031338;28;20572;-72
2022/06/22 10:50:41;;;;;;;5.70;3.27;;;23.60;52.10;;;;;;5031421;28;20444;-72
2022/06/22 10:53:54;;;;;;;9.90;3.43;;;23.70;55.40;;;;;;5027458;28;20467;-72
2022/06/22 10:56:58;;;;;;;6.33;3.00;;;23.80;54.10;;;;;;5028329;28;20797;-72
2022/06/22 11:00:09;;;;;;;14.30;3.57;;;23.90;55.00;;;;;;5028625;28;20449;-72
2022/06/22 11:03:26;;;;;;;10.67;3.57;;;23.90;54.60;;;;;;5027881;28;20554;-73
2022/06/22 11:06:46;;;;;;;11.90;3.70;;;24.00;52.20;;;;;;5030422;28;20551;-72
2022/06/22 11:09:57;;;;;;;7.30;3.17;;;24.00;48.10;;;;;;5028995;28;20842;-73
2022/06/22 11:13:00;;;;;;;6.07;2.60;;;24.10;49.20;;;;;;5039063;22;20987;-73
2022/06/22 11:16:22;;;;;;;4.77;3.10;;;24.10;49.30;;;;;;5027440;28;20991;-73
2022/06/22 11:19:53;;;;;;;9.70;3.43;;;24.10;43.20;;;;;;5027443;28;20499;-71
2022/06/22 11:22:42;;;;;;;5.10;3.37;;;24.20;43.20;;;;;;5024175;28;20518;-71
2022/06/22 11:32:57;;;;;;;6.40;3.40;;;24.40;47.70;;;;;;5026840;28;21309;-71
2022/06/22 11:36:04;;;;;;;6.73;3.00;;;24.30;45.90;;;;;;5027435;28;20456;-71
2022/06/22 11:39:14;;;;;;;6.20;2.47;;;24.30;46.90;;;;;;5026275;28;20836;-72
2022/06/22 11:42:24;;;;;;;6.80;3.80;;;24.30;44.20;;;;;;5024545;28;20576;-72
2022/06/22 11:49:24;;;;;;;11.70;3.47;;;24.30;45.90;;;;;;5025982;28;20453;-72
2022/06/22 11:52:38;;;;;;;8.87;2.93;;;24.30;41.10;;;;;;5024659;28;20924;-72
2022/06/22 11:55:26;;;;;;;7.83;3.30;;;24.30;42.80;;;;;;5023885;28;20469;-72
2022/06/22 11:58:25;;;;;;;11.50;3.10;;;24.30;44.20;;;;;;5030237;28;20547;-70
2022/06/22 12:01:36;;;;;;;5.10;2.80;;;24.30;44.20;;;;;;5020454;28;20448;-72
2022/06/22 12:04:49;;;;;;;6.83;3.10;;;24.30;43.40;;;;;;5024552;28;20460;-72
2022/06/22 12:08:09;;;;;;;4.90;3.20;;;24.30;43.20;;;;;;5024997;28;20451;-72
2022/06/22 12:11:05;;;;;;;5.53;2.80;;;24.30;40.40;;;;;;5018522;28;20456;-71
2022/06/22 12:17:44;;;;;;;10.03;3.70;;;24.40;43.70;;;;;;5025046;28;21003;-71
2022/06/22 12:20:43;;;;;;;5.00;3.20;;;24.30;44.20;;;;;;5022531;28;21031;-72
2022/06/22 12:23:41;;;;;;;5.93;3.50;;;24.30;45.80;;;;;;5024855;28;20476;-71
2022/06/22 12:26:39;;;;;;;12.20;3.40;;;24.30;46.00;;;;;;5025213;28;20532;-71
2022/06/22 12:29:45;;;;;;;10.97;3.40;;;24.30;47.20;;;;;;5022456;28;20823;-71
2022/06/22 12:32:38;;;;;;;7.63;3.80;;;24.40;47.90;;;;;;5024504;28;20487;-72
2022/06/22 12:35:36;;;;;;;4.93;3.30;;;24.30;47.40;;;;;;5023856;28;20440;-72
2022/06/22 12:38:27;;;;;;;8.50;3.87;;;24.30;48.20;;;;;;5025129;28;20811;-72
2022/06/22 12:41:28;;;;;;;16.60;3.80;;;24.20;49.10;;;;;;5022602;28;20944;-71
2022/06/22 12:44:37;;;;;;;7.00;4.50;;;24.10;48.90;;;;;;5026179;28;20475;-71
2022/06/22 12:47:44;;;;;;;8.77;3.30;;;24.00;50.70;;;;;;5017046;28;20540;-72
2022/06/22 12:50:53;;;;;;;8.33;3.73;;;24.00;52.10;;;;;;5021682;28;20468;-71
2022/06/22 12:53:45;;;;;;;11.30;3.80;;;23.90;50.10;;;;;;5029803;28;20528;-72
2022/06/22 12:56:35;;;;;;;11.53;4.23;;;23.90;50.10;;;;;;5035983;28;20571;-72
2022/06/22 12:59:29;;;;;;;5.83;3.60;;;23.90;50.90;;;;;;5021999;28;20476;-72
2022/06/22 13:02:17;;;;;;;12.37;4.20;;;23.80;50.20;;;;;;5021827;28;20568;-71
2022/06/22 13:05:09;;;;;;;16.43;4.40;;;23.70;49.40;;;;;;5025017;28;20420;-71
2022/06/22 13:07:58;;;;;;;6.40;3.70;;;23.70;49.10;;;;;;5028881;28;20433;-72
2022/06/22 13:10:46;;;;;;;8.40;4.10;;;23.80;50.10;;;;;;5022908;28;20965;-71
2022/06/22 13:13:41;;;;;;;10.73;4.23;;;23.90;48.70;;;;;;5023526;28;20468;-71
2022/06/22 13:16:30;;;;;;;6.27;3.80;;;23.90;48.50;;;;;;5021548;28;20412;-72
2022/06/22 13:19:21;;;;;;;12.87;4.40;;;24.00;48.90;;;;;;5025956;28;20453;-72
2022/06/22 13:22:16;;;;;;;12.47;3.30;;;24.10;48.90;;;;;;5025069;28;20510;-71
2022/06/22 13:25:13;;;;;;;12.33;3.63;;;24.40;49.40;;;;;;5036482;28;20424;-72
2022/06/22 13:28:06;;;;;;;8.50;3.60;;;24.50;49.10;;;;;;5030939;28;20937;-72
2022/06/22 13:30:56;;;;;;;12.47;4.17;;;24.50;49.10;;;;;;5023211;28;20553;-71
2022/06/22 13:33:47;;;;;;;9.07;5.10;;;24.50;46.50;;;;;;5030725;28;20472;-72
2022/06/22 13:36:40;;;;;;;11.80;4.23;;;24.40;49.40;;;;;;5027029;28;20538;-72
2022/06/22 13:39:40;;;;;;;11.20;5.13;;;24.40;50.10;;;;;;5017573;28;20500;-71
2022/06/22 13:42:49;;;;;;;8.87;3.70;;;24.40;50.50;;;;;;5029086;28;20441;-71
2022/06/22 13:45:44;;;;;;;9.50;4.07;;;24.40;50.10;;;;;;5029804;28;21016;-71
2022/06/22 13:48:37;;;;;;;8.53;3.23;;;24.40;50.70;;;;;;5025964;28;20477;-72
2022/06/22 13:52:05;;;;;;;7.30;4.07;;;24.40;51.30;;;;;;5027815;28;20440;-71
2022/06/22 13:55:21;;;;;;;10.57;4.63;;;24.40;49.60;;;;;;5028282;28;20460;-71
2022/06/22 13:58:14;;;;;;;21.17;5.90;;;24.30;50.30;;;;;;5029083;28;20963;-71
2022/06/22 14:01:05;;;;;;;9.53;5.70;;;24.30;52.60;;;;;;5027314;28;20744;-71
2022/06/22 14:03:58;;;;;;;12.43;5.27;;;24.10;54.70;;;;;;5028262;28;20476;-71
2022/06/22 14:06:50;;;;;;;11.37;6.20;;;24.00;57.60;;;;;;5028904;28;20615;-71
2022/06/22 14:09:43;;;;;;;6.90;4.90;;;24.00;58.40;;;;;;5026640;28;20468;-71
2022/06/22 14:12:39;;;;;;;10.73;5.30;;;24.00;60.70;;;;;;5029825;28;20520;-71
2022/06/22 14:15:33;;;;;;;9.77;5.30;;;24.00;63.00;;;;;;5023881;28;20600;-71
2022/06/22 14:18:27;;;;;;;11.50;5.13;;;23.90;64.00;;;;;;5026168;28;20455;-71
2022/06/22 14:21:24;;;;;;;19.90;6.30;;;23.80;67.00;;;;;;5024119;28;20856;-71
2022/06/22 14:24:15;;;;;;;11.23;5.80;;;23.80;69.20;;;;;;5021295;28;20989;-71
2022/06/22 14:27:21;;;;;;;11.23;6.37;;;23.70;71.20;;;;;;5026252;28;20475;-72
2022/06/22 14:30:17;;;;;;;16.50;7.07;;;23.50;73.50;;;;;;5025672;28;20572;-73
2022/06/22 14:33:25;;;;;;;18.17;7.70;;;23.50;75.20;;;;;;5027529;28;20456;-71
2022/06/22 14:36:19;;;;;;;15.00;6.97;;;23.30;75.70;;;;;;5029018;28;20420;-71
2022/06/22 14:39:15;;;;;;;17.53;6.63;;;23.40;77.40;;;;;;5022657;28;20526;-71
2022/06/22 14:42:06;;;;;;;13.87;6.70;;;23.50;77.40;;;;;;5026720;28;20452;-71
2022/06/22 14:44:58;;;;;;;11.00;6.13;;;23.50;77.40;;;;;;5027600;28;20433;-71
2022/06/22 14:47:52;;;;;;;12.30;6.10;;;23.50;78.60;;;;;;5020286;28;20476;-71
2022/06/22 14:50:44;;;;;;;12.63;6.50;;;23.40;79.20;;;;;;5027879;28;20440;-72
2022/06/22 14:53:49;;;;;;;15.20;7.20;;;23.30;78.90;;;;;;5024003;28;20526;-71
2022/06/22 14:56:40;;;;;;;20.03;7.93;;;23.10;80.40;;;;;;5028817;28;20452;-71
2022/06/22 14:59:36;;;;;;;9.00;7.00;;;23.20;81.90;;;;;;5020716;28;20437;-71
2022/06/22 15:02:29;;;;;;;13.73;7.27;;;23.20;83.10;;;;;;5022176;28;20472;-71
2022/06/22 15:05:24;;;;;;;15.27;6.50;;;23.20;82.00;;;;;;5021795;28;21025;-71
2022/06/22 15:08:15;;;;;;;16.17;8.80;;;23.20;81.90;;;;;;5018122;28;20434;-70
2022/06/22 15:12:56;;;;;;;16.03;7.20;;;23.20;81.90;;;;;;5023599;28;20894;-70
2022/06/22 15:14:22;;;;;;;13.10;6.60;;;23.20;83.60;;;;;;5020261;28;20631;-72
2022/06/22 15:17:15;;;;;;;13.23;6.27;;;23.10;85.40;;;;;;5022339;28;20452;-71
2022/06/22 15:20:08;;;;;;;20.37;5.87;;;23.00;86.30;;;;;;5022209;28;20468;-72
2022/06/22 15:23:00;;;;;;;14.87;6.73;;;23.10;87.10;;;;;;5023640;28;21008;-71
2022/06/22 15:25:55;;;;;;;21.20;6.20;;;23.00;86.40;;;;;;5026129;28;20449;-71
2022/06/22 15:28:49;;;;;;;11.53;5.60;;;23.10;86.50;;;;;;5022746;28;20440;-71
2022/06/22 15:31:48;;;;;;;12.53;5.60;;;23.10;88.20;;;;;;5024326;28;20448;-73
2022/06/22 15:34:44;;;;;;;15.63;6.87;;;23.00;88.90;;;;;;5024320;28;20445;-73
2022/06/22 15:37:42;;;;;;;13.47;7.13;;;23.00;90.00;;;;;;5018427;28;20444;-72
2022/06/22 15:40:54;;;;;;;15.93;5.70;;;23.00;90.40;;;;;;5029653;28;20429;-72